Metar z pełnej godziny Komunikat METAR ze strony awiacja.imgw.pl Metar G00 EPZG METAR EPZG 261900Z 24009KT 6000 BKN008 OVC014 01/M00 Q1012 =